Aérodrome :
LOGIN :

S'inscrire | Disclaimer

   EN    FR    IT 

 










Légende :    VFR   VFR Marginal   IFR   IFR Intensif   IFR Très Intensif
Visi : 
Plafond : 
>= 8 km
>= 3000ft
5 à 8 km
1000 à 3000 ft
1500m à 5 km
500 à 1000 ft
800 à 1500m
200 à 500 ft
< 800m
< 200 ft
Symboles :   Orages  Brouillard  Fortes neiges  Fortes précipitations  Vent > 20 kt
SIGMETs :   Divers  Orages  Givrage  Turbulence  Onde Orograph.  Cendres Volcan.






- Altitude de l'aérodrome : 147 ft
- Code IATA : DUS


EDDL - Düsseldorf Int.

DERNIER METAR :
  • 292050Z 21010KT 9999 FEW028 04/01 Q1012 NOSIG

METARs EXPIRÉS :
  • 292020Z 21010KT 9999 FEW028 04/01 Q1013 NOSIG
  • 291950Z 22011KT 9999 FEW028 BKN039 05/01 Q1013 NOSIG
  • 291920Z 22009KT 9999 FEW035 BKN042 04/01 Q1012 NOSIG
  • 291850Z 23009KT 9999 FEW035 BKN044 05/02 Q1012 NOSIG
  • 291820Z 24011KT 9999 BKN045 06/02 Q1012 NOSIG
  • 291750Z 25009KT 9999 FEW036 SCT047 06/02 Q1011 NOSIG

TAF TAF EDDL
Valide du 29 à 18h jusqu'au 31 à 00h UTC


291700Z 2918/3024 23010KT 9999 SCT030
BECMG 3011/3014 17012KT
BECMG 3019/3021 23012KT BKN010
TEMPO 3021/3024 23015G25KT BKN007



MET'MAP, la Météo Aéronautique d'un coup d'oeil ! - Copyright ORBIFLY Décembre 2007 - Disclaimer

ORBIFLY MET'MAP TEAM :

Programmation & Développement : Alexandra Zaïnal
Sur une idée originale de : Baudouin d'Aumeries
Assistance à la programmation : Marc-Olivier Méhu
Soutien technique & logistique : Manuel Goepfert

Contact : metmap@orbifly.com




SOURCES & CREDITS :

   NOAA